Time;durP1;ratioP1;P1;durP2;ratioP2;P2;SDS_P1;SDS_P2;PMS_P1;PMS_P2;Temp;Humidity;BMP_temperature;BMP_pressure;BME280_temperature;BME280_humidity;BME280_pressure;Samples;Min_cycle;Max_cycle;Signal;HPM_P1;HPM_P2
2022/12/18 00:02:22;;;;;;;53.23;21.93;;;-5.80;99.90;;;;;;5040047;28;20285;-58
2022/12/18 00:04:47;;;;;;;59.57;22.87;;;-5.80;99.90;;;;;;5046580;28;20192;-57
2022/12/18 00:07:13;;;;;;;56.83;23.60;;;-5.80;99.90;;;;;;5041501;28;20857;-57
2022/12/18 00:09:39;;;;;;;61.70;23.87;;;-5.80;99.90;;;;;;5042643;28;20195;-56
2022/12/18 00:12:04;;;;;;;54.60;22.87;;;-5.80;99.90;;;;;;5036856;28;22095;-58
2022/12/18 00:14:31;;;;;;;54.50;22.20;;;-5.90;99.90;;;;;;5046374;28;20185;-57
2022/12/18 00:16:58;;;;;;;49.20;20.47;;;-5.90;99.90;;;;;;5021873;28;20235;-58
2022/12/18 00:19:23;;;;;;;52.97;21.30;;;-5.90;99.90;;;;;;5046976;28;20442;-58
2022/12/18 00:21:49;;;;;;;63.60;20.77;;;-5.90;99.90;;;;;;5025263;28;20427;-58
2022/12/18 00:24:15;;;;;;;68.17;21.80;;;-6.00;99.90;;;;;;5041466;28;20200;-57
2022/12/18 00:26:40;;;;;;;51.73;20.40;;;-6.00;99.90;;;;;;5024165;28;20192;-57
2022/12/18 00:29:10;;;;;;;65.80;22.20;;;-6.00;99.90;;;;;;5022441;28;20223;-56
2022/12/18 00:31:37;;;;;;;56.33;20.47;;;-6.00;99.90;;;;;;5040243;28;20172;-57
2022/12/18 00:34:03;;;;;;;58.27;22.20;;;-6.00;99.90;;;;;;5040589;28;20436;-57
2022/12/18 00:36:33;;;;;;;60.13;21.73;;;-6.00;99.90;;;;;;5038801;28;20574;-57
2022/12/18 00:38:59;;;;;;;49.97;20.47;;;-6.00;99.90;;;;;;5042474;28;21136;-57
2022/12/18 00:44:13;;;;;;;57.57;21.37;;;-6.00;99.90;;;;;;5048509;28;20573;-57
2022/12/18 00:46:39;;;;;;;56.03;22.33;;;-6.00;99.90;;;;;;5045494;28;20477;-56
2022/12/18 00:49:05;;;;;;;59.87;21.47;;;-6.00;99.90;;;;;;5044015;28;20470;-57
2022/12/18 00:51:31;;;;;;;64.87;23.20;;;-5.90;99.90;;;;;;5040847;28;21001;-56
2022/12/18 00:53:56;;;;;;;54.60;20.77;;;-5.90;99.90;;;;;;5047679;28;20478;-56
2022/12/18 00:56:23;;;;;;;68.00;22.73;;;-5.90;99.90;;;;;;5049732;28;20202;-59
2022/12/18 00:58:49;;;;;;;56.53;22.17;;;-5.90;99.90;;;;;;5046334;28;20187;-57
2022/12/18 01:01:15;;;;;;;60.43;23.17;;;-5.90;99.90;;;;;;5041256;28;20439;-57
2022/12/18 01:03:41;;;;;;;61.57;22.90;;;-5.90;99.90;;;;;;5047619;28;20726;-58
2022/12/18 01:06:08;;;;;;;67.63;23.37;;;-5.90;99.90;;;;;;5048463;28;20455;-57
2022/12/18 01:08:35;;;;;;;58.47;22.67;;;-5.90;99.90;;;;;;5045165;28;20177;-57
2022/12/18 01:11:06;;;;;;;59.03;20.30;;;-5.80;99.90;;;;;;5028205;28;20462;-58
2022/12/18 01:13:32;;;;;;;51.27;20.23;;;-5.80;99.90;;;;;;5042426;28;20465;-57
2022/12/18 01:15:57;;;;;;;54.27;20.90;;;-5.80;99.90;;;;;;5019348;28;20459;-57
2022/12/18 01:18:23;;;;;;;51.17;20.60;;;-5.80;99.90;;;;;;5048926;28;20625;-58
2022/12/18 01:20:48;;;;;;;56.43;20.43;;;-5.80;99.90;;;;;;5044682;28;20176;-58
2022/12/18 01:23:14;;;;;;;51.50;19.70;;;-5.80;99.90;;;;;;5044687;28;21062;-58
2022/12/18 01:25:39;;;;;;;61.87;20.63;;;-5.80;99.90;;;;;;5047216;28;20231;-57
2022/12/18 01:28:05;;;;;;;55.40;23.20;;;-5.80;99.90;;;;;;5047335;28;20671;-58
2022/12/18 01:30:31;;;;;;;54.97;20.43;;;-5.80;99.90;;;;;;5037141;28;20174;-58
2022/12/18 01:32:56;;;;;;;46.87;17.60;;;-5.80;99.90;;;;;;5047373;28;20830;-57
2022/12/18 01:35:22;;;;;;;58.70;21.00;;;-5.80;99.90;;;;;;5043119;28;20188;-58
2022/12/18 01:37:47;;;;;;;51.73;19.13;;;-5.80;99.90;;;;;;5046296;28;20570;-58
2022/12/18 01:40:13;;;;;;;52.03;20.73;;;-5.80;99.90;;;;;;5030515;28;20200;-58
2022/12/18 01:42:39;;;;;;;52.03;19.10;;;-5.80;99.90;;;;;;5046027;28;20200;-58
2022/12/18 01:45:04;;;;;;;53.67;21.60;;;-5.80;99.90;;;;;;5038571;28;20184;-57
2022/12/18 01:47:38;;;;;;;47.20;18.70;;;-5.80;99.90;;;;;;5041153;28;20249;-58
2022/12/18 01:50:15;;;;;;;51.40;18.60;;;-5.80;99.90;;;;;;5036981;28;20177;-58
2022/12/18 01:52:44;;;;;;;44.20;18.67;;;-5.70;99.90;;;;;;5046424;28;20517;-58
2022/12/18 01:55:12;;;;;;;44.60;19.23;;;-5.70;99.90;;;;;;5040760;28;20939;-58
2022/12/18 01:57:39;;;;;;;51.50;18.00;;;-5.70;99.90;;;;;;5043080;28;20462;-58
2022/12/18 02:00:08;;;;;;;57.90;20.97;;;-5.70;99.90;;;;;;5046130;28;20431;-58
2022/12/18 02:02:34;;;;;;;50.30;19.60;;;-5.70;99.90;;;;;;5044070;28;20501;-58
2022/12/18 02:05:01;;;;;;;56.23;20.67;;;-5.70;99.90;;;;;;5050644;28;20473;-58
2022/12/18 02:07:58;;;;;;;57.03;22.50;;;-5.70;99.90;;;;;;5043629;28;21181;-58
2022/12/18 02:10:38;;;;;;;70.27;22.17;;;-5.70;99.90;;;;;;5050847;28;20450;-56
2022/12/18 02:13:30;;;;;;;58.50;21.13;;;-5.70;99.90;;;;;;5040018;28;20463;-58
2022/12/18 02:16:18;;;;;;;54.23;19.70;;;-5.70;99.90;;;;;;5047328;28;20963;-58
2022/12/18 02:18:48;;;;;;;56.90;19.90;;;-5.70;99.90;;;;;;5044039;28;20775;-58
2022/12/18 02:21:20;;;;;;;59.87;21.90;;;-5.70;99.90;;;;;;5027573;28;20432;-56
2022/12/18 02:23:56;;;;;;;68.47;22.43;;;-5.80;99.90;;;;;;5046448;28;20505;-58
2022/12/18 02:26:41;;;;;;;57.20;20.90;;;-5.80;99.90;;;;;;5041876;28;20573;-59
2022/12/18 02:29:27;;;;;;;72.57;21.97;;;-5.70;99.90;;;;;;5037751;28;20477;-58
2022/12/18 02:32:00;;;;;;;68.33;21.47;;;-5.70;99.90;;;;;;5046165;28;20498;-58
2022/12/18 02:34:33;;;;;;;59.00;21.00;;;-5.70;99.90;;;;;;5046225;28;21019;-58
2022/12/18 02:37:03;;;;;;;62.20;21.87;;;-5.70;99.90;;;;;;5037714;28;20463;-58
2022/12/18 02:39:30;;;;;;;59.77;23.00;;;-5.70;99.90;;;;;;5045515;28;20435;-57
2022/12/18 02:41:57;;;;;;;57.30;21.43;;;-5.70;99.90;;;;;;5048442;28;21058;-58
2022/12/18 02:44:23;;;;;;;73.40;22.43;;;-5.70;99.90;;;;;;5042709;28;20477;-58
2022/12/18 02:46:51;;;;;;;51.80;21.50;;;-5.70;99.90;;;;;;5042819;28;20455;-60
2022/12/18 02:49:29;;;;;;;57.07;21.13;;;-5.70;99.90;;;;;;5025663;28;20267;-58
2022/12/18 02:52:04;;;;;;;51.90;20.87;;;-5.70;99.90;;;;;;5043350;28;20429;-58
2022/12/18 02:54:41;;;;;;;63.50;21.17;;;-5.70;99.90;;;;;;5036341;28;20477;-58
2022/12/18 02:57:34;;;;;;;58.20;21.30;;;-5.60;99.90;;;;;;5041465;28;20446;-58
2022/12/18 03:00:06;;;;;;;49.30;19.30;;;-5.60;99.90;;;;;;5022740;28;20439;-57
2022/12/18 03:02:46;;;;;;;55.87;20.50;;;-5.60;99.90;;;;;;5044599;28;20463;-58
2022/12/18 03:05:23;;;;;;;55.63;19.00;;;-5.60;99.90;;;;;;5045081;28;20423;-58
2022/12/18 03:07:57;;;;;;;61.13;20.47;;;-5.60;99.90;;;;;;5045706;28;20419;-57
2022/12/18 03:10:28;;;;;;;64.40;21.30;;;-5.60;99.90;;;;;;5043727;28;20434;-58
2022/12/18 03:13:08;;;;;;;60.03;22.17;;;-5.60;99.90;;;;;;5037990;28;20423;-59
2022/12/18 03:15:47;;;;;;;59.90;21.03;;;-5.50;99.90;;;;;;5047085;28;20431;-58
2022/12/18 03:18:19;;;;;;;57.57;19.50;;;-5.50;99.90;;;;;;5042771;28;20500;-57
2022/12/18 03:20:49;;;;;;;63.00;21.17;;;-5.50;99.90;;;;;;5045413;28;20428;-57
2022/12/18 03:23:18;;;;;;;54.17;18.27;;;-5.50;99.90;;;;;;5046534;28;20456;-57
2022/12/18 03:25:45;;;;;;;62.97;20.87;;;-5.50;99.90;;;;;;5037734;28;20532;-58
2022/12/18 03:28:15;;;;;;;49.97;19.77;;;-5.40;99.90;;;;;;5021201;28;20434;-58
2022/12/18 03:30:45;;;;;;;61.03;18.90;;;-5.40;99.90;;;;;;5044025;28;20426;-58
2022/12/18 03:33:19;;;;;;;56.07;19.83;;;-5.40;99.90;;;;;;5041929;28;20467;-59
2022/12/18 03:35:45;;;;;;;58.83;21.40;;;-5.40;99.90;;;;;;5041380;28;20556;-58
2022/12/18 03:38:11;;;;;;;65.37;21.40;;;-5.40;99.90;;;;;;5079337;22;20499;-61
2022/12/18 03:41:07;;;;;;;60.33;19.50;;;-5.40;99.90;;;;;;5070979;28;20442;-65
2022/12/18 03:43:50;;;;;;;62.00;20.63;;;-5.40;99.90;;;;;;5030966;28;20467;-58
2022/12/18 03:46:34;;;;;;;55.73;19.87;;;-5.40;99.90;;;;;;5027725;28;20485;-59
2022/12/18 03:49:11;;;;;;;67.27;21.80;;;-5.40;99.90;;;;;;5043891;28;20494;-58
2022/12/18 03:51:47;;;;;;;57.03;18.83;;;-5.40;99.90;;;;;;5036072;28;20527;-59
2022/12/18 03:54:13;;;;;;;57.33;20.30;;;-5.30;99.90;;;;;;5045515;28;20513;-58
2022/12/18 03:56:44;;;;;;;54.43;19.47;;;-5.30;99.90;;;;;;5042294;28;20466;-59
2022/12/18 03:59:12;;;;;;;57.87;20.07;;;-5.20;99.90;;;;;;5043984;28;20427;-60
2022/12/18 04:01:41;;;;;;;57.27;19.33;;;-5.20;99.90;;;;;;5041451;28;20449;-64
2022/12/18 04:04:09;;;;;;;52.83;19.50;;;-5.20;99.90;;;;;;5060464;28;20502;-63
2022/12/18 04:06:35;;;;;;;47.17;19.43;;;-5.20;99.90;;;;;;5066883;28;20467;-61
2022/12/18 04:09:01;;;;;;;59.70;19.43;;;-5.20;99.90;;;;;;5057431;28;20445;-63
2022/12/18 04:11:27;;;;;;;54.27;20.07;;;-5.10;99.90;;;;;;5057447;28;20392;-60
2022/12/18 04:13:57;;;;;;;50.17;18.13;;;-5.20;99.90;;;;;;5066444;28;20418;-59
2022/12/18 04:16:23;;;;;;;53.00;18.13;;;-5.20;99.90;;;;;;5053032;28;20268;-60
2022/12/18 04:18:49;;;;;;;46.60;17.60;;;-5.20;99.90;;;;;;5040531;28;20446;-60
2022/12/18 04:21:15;;;;;;;47.20;17.00;;;-5.10;99.90;;;;;;5046422;28;20432;-59
2022/12/18 04:23:40;;;;;;;44.83;17.43;;;-5.10;99.90;;;;;;5027518;28;20235;-61
2022/12/18 04:26:06;;;;;;;53.10;17.33;;;-5.10;99.90;;;;;;5045306;28;20181;-58
2022/12/18 04:28:31;;;;;;;40.53;16.20;;;-5.10;99.90;;;;;;5055972;28;20221;-59
2022/12/18 04:30:57;;;;;;;47.50;17.50;;;-5.00;99.90;;;;;;5062423;28;20259;-60
2022/12/18 04:33:22;;;;;;;36.73;15.33;;;-5.00;99.90;;;;;;5049404;28;20185;-58
2022/12/18 04:35:48;;;;;;;35.37;14.50;;;-5.00;99.90;;;;;;5047923;28;20185;-57
2022/12/18 04:38:14;;;;;;;38.77;13.20;;;-5.00;99.90;;;;;;5042718;28;20235;-58
2022/12/18 04:40:40;;;;;;;40.10;15.40;;;-4.90;99.90;;;;;;5044999;28;20176;-59
2022/12/18 04:43:05;;;;;;;44.07;15.30;;;-4.90;99.90;;;;;;5046363;28;20551;-59
2022/12/18 04:45:32;;;;;;;46.13;14.87;;;-4.90;99.90;;;;;;5038690;28;20222;-57
2022/12/18 04:47:59;;;;;;;34.43;14.80;;;-4.90;99.90;;;;;;5040444;28;20284;-59
2022/12/18 04:50:24;;;;;;;33.17;13.77;;;-4.90;99.90;;;;;;5037692;28;20453;-58
2022/12/18 04:52:50;;;;;;;35.47;13.73;;;-4.90;99.90;;;;;;5046404;28;20435;-59
2022/12/18 04:55:16;;;;;;;38.40;14.93;;;-4.90;99.90;;;;;;5043112;28;20295;-58
2022/12/18 04:57:41;;;;;;;44.93;14.60;;;-4.90;99.90;;;;;;5027633;28;20247;-56
2022/12/18 05:00:07;;;;;;;37.27;15.00;;;-4.90;99.90;;;;;;5042685;28;20181;-58
2022/12/18 05:02:33;;;;;;;37.87;14.50;;;-4.90;99.90;;;;;;5041148;28;20296;-59
2022/12/18 05:04:59;;;;;;;38.70;14.40;;;-4.80;99.90;;;;;;5051036;28;20506;-59
2022/12/18 05:07:24;;;;;;;38.43;15.07;;;-4.80;99.90;;;;;;5045110;28;20213;-59
2022/12/18 05:09:50;;;;;;;37.03;15.20;;;-4.80;99.90;;;;;;5014623;28;20165;-57
2022/12/18 05:12:16;;;;;;;44.27;16.90;;;-4.80;99.90;;;;;;5044193;28;20185;-58
2022/12/18 05:14:41;;;;;;;40.20;15.83;;;-4.80;99.90;;;;;;5047667;28;20175;-58
2022/12/18 05:17:07;;;;;;;34.63;15.33;;;-4.80;99.90;;;;;;5041940;28;20193;-59
2022/12/18 05:19:33;;;;;;;39.47;14.80;;;-4.80;99.90;;;;;;5040816;28;20181;-60
2022/12/18 05:21:58;;;;;;;40.10;16.30;;;-4.80;99.90;;;;;;5050086;28;20833;-58
2022/12/18 05:24:24;;;;;;;40.23;15.53;;;-4.80;99.90;;;;;;5048115;28;20215;-58
2022/12/18 05:26:49;;;;;;;39.10;15.03;;;-4.80;99.90;;;;;;5050295;28;20212;-58
2022/12/18 05:29:15;;;;;;;37.43;14.70;;;-4.80;99.90;;;;;;5047859;28;20617;-59
2022/12/18 05:31:41;;;;;;;37.57;15.27;;;-4.80;99.90;;;;;;5031818;28;20180;-59
2022/12/18 05:34:06;;;;;;;34.97;15.50;;;-4.80;99.90;;;;;;5050414;28;20637;-58
2022/12/18 05:36:32;;;;;;;42.30;15.40;;;-4.80;99.90;;;;;;5049817;28;20184;-56
2022/12/18 05:38:59;;;;;;;38.13;14.97;;;-4.80;99.90;;;;;;5043837;28;20216;-58
2022/12/18 05:41:25;;;;;;;41.53;14.90;;;-4.80;99.90;;;;;;5029542;28;20515;-56
2022/12/18 05:43:51;;;;;;;40.10;14.80;;;-4.80;99.90;;;;;;5049302;28;20546;-58
2022/12/18 05:46:18;;;;;;;42.10;16.47;;;-4.80;99.90;;;;;;5047711;28;20942;-63
2022/12/18 05:48:44;;;;;;;43.67;16.50;;;-4.80;99.90;;;;;;5035560;28;20174;-58
2022/12/18 05:51:15;;;;;;;42.93;15.43;;;-4.70;99.90;;;;;;5045344;28;20774;-60
2022/12/18 05:53:41;;;;;;;38.57;14.80;;;-4.70;99.90;;;;;;5050569;28;20438;-61
2022/12/18 05:56:09;;;;;;;40.60;16.37;;;-4.70;99.90;;;;;;5058302;28;20495;-58
2022/12/18 05:58:35;;;;;;;40.70;16.77;;;-4.70;99.90;;;;;;5047930;28;21017;-58
2022/12/18 06:01:30;;;;;;;42.57;15.70;;;-4.70;99.90;;;;;;5042382;28;20476;-59
2022/12/18 06:03:55;;;;;;;40.00;15.53;;;-4.70;99.90;;;;;;5043386;28;20223;-58
2022/12/18 06:06:24;;;;;;;42.33;15.60;;;-4.70;99.90;;;;;;5046851;28;20758;-59
2022/12/18 06:08:50;;;;;;;39.47;15.90;;;-4.70;99.90;;;;;;5048348;28;20176;-58
2022/12/18 06:11:18;;;;;;;41.00;17.77;;;-4.70;99.90;;;;;;5049668;28;20856;-55
2022/12/18 06:13:44;;;;;;;38.40;14.77;;;-4.70;99.90;;;;;;5053015;28;20425;-61
2022/12/18 06:16:10;;;;;;;45.37;15.60;;;-4.70;99.90;;;;;;5064409;28;20441;-60
2022/12/18 06:18:39;;;;;;;46.07;17.03;;;-4.70;99.90;;;;;;5058381;28;20475;-58
2022/12/18 06:21:04;;;;;;;45.87;17.27;;;-4.70;99.90;;;;;;5064470;28;20192;-62
2022/12/18 06:23:30;;;;;;;51.60;17.47;;;-4.70;99.90;;;;;;5074461;28;20517;-64
2022/12/18 06:25:56;;;;;;;43.30;17.13;;;-4.60;99.90;;;;;;5063114;28;20199;-61
2022/12/18 06:28:21;;;;;;;46.90;16.93;;;-4.60;99.90;;;;;;5064993;28;20185;-61
2022/12/18 06:30:48;;;;;;;41.30;15.07;;;-4.60;99.90;;;;;;5066418;28;20172;-64
2022/12/18 06:33:14;;;;;;;53.23;17.50;;;-4.60;99.90;;;;;;5063802;28;20180;-58
2022/12/18 06:35:41;;;;;;;46.43;17.77;;;-4.60;99.90;;;;;;5044925;28;20441;-59
2022/12/18 06:38:07;;;;;;;47.10;18.03;;;-4.50;99.90;;;;;;5053851;28;20459;-58
2022/12/18 06:40:32;;;;;;;50.70;16.97;;;-4.60;99.90;;;;;;5047508;28;20432;-57
2022/12/18 06:42:58;;;;;;;50.23;18.67;;;-4.50;99.90;;;;;;5048090;28;20505;-58
2022/12/18 06:45:24;;;;;;;46.70;17.13;;;-4.50;99.90;;;;;;5026731;28;20542;-57
2022/12/18 06:47:50;;;;;;;50.37;18.07;;;-4.50;99.90;;;;;;5043242;28;20685;-57
2022/12/18 06:50:15;;;;;;;51.47;16.90;;;-4.50;99.90;;;;;;5048452;28;20170;-58
2022/12/18 06:52:42;;;;;;;45.93;17.10;;;-4.50;99.90;;;;;;5047926;28;20797;-58
2022/12/18 06:55:08;;;;;;;49.73;17.13;;;-4.50;99.90;;;;;;5033434;28;20402;-55
2022/12/18 06:57:34;;;;;;;53.50;18.30;;;-4.50;99.90;;;;;;5038276;28;21138;-57
2022/12/18 06:59:59;;;;;;;46.17;17.07;;;-4.50;99.90;;;;;;5062456;28;20561;-58
2022/12/18 07:02:25;;;;;;;52.07;17.90;;;-4.40;99.90;;;;;;5048529;28;20442;-56
2022/12/18 07:04:51;;;;;;;51.90;18.27;;;-4.50;99.90;;;;;;5036859;28;20181;-58
2022/12/18 07:07:16;;;;;;;56.40;19.73;;;-4.40;99.90;;;;;;5055494;28;20209;-58
2022/12/18 07:09:42;;;;;;;55.00;18.40;;;-4.40;99.90;;;;;;5053737;28;20267;-62
2022/12/18 07:12:08;;;;;;;52.77;19.30;;;-4.50;99.90;;;;;;5072295;28;20430;-60
2022/12/18 07:14:34;;;;;;;55.53;19.57;;;-4.40;99.90;;;;;;5061135;28;20229;-61
2022/12/18 07:16:59;;;;;;;50.47;18.80;;;-4.40;99.90;;;;;;5065762;28;20221;-60
2022/12/18 07:19:25;;;;;;;51.80;17.80;;;-4.40;99.90;;;;;;5075940;28;20178;-67
2022/12/18 07:21:51;;;;;;;56.23;18.83;;;-4.40;99.90;;;;;;5046806;28;20178;-60
2022/12/18 07:24:17;;;;;;;61.87;21.00;;;-4.40;99.90;;;;;;5060414;28;20217;-60
2022/12/18 07:26:45;;;;;;;56.77;19.10;;;-4.50;99.90;;;;;;5063631;28;20435;-60
2022/12/18 07:29:10;;;;;;;52.10;19.40;;;-4.40;99.90;;;;;;5066589;28;20208;-61
2022/12/18 07:31:36;;;;;;;49.13;19.27;;;-4.40;99.90;;;;;;5064992;28;20446;-58
2022/12/18 07:34:02;;;;;;;61.60;21.43;;;-4.40;99.90;;;;;;5063286;28;20181;-61
2022/12/18 07:36:27;;;;;;;58.47;19.17;;;-4.40;99.90;;;;;;5068740;28;20193;-61
2022/12/18 07:38:53;;;;;;;66.77;19.40;;;-4.40;99.90;;;;;;5059859;28;20192;-62
2022/12/18 07:41:19;;;;;;;63.73;19.07;;;-4.40;99.90;;;;;;5064347;28;20179;-56
2022/12/18 07:43:45;;;;;;;60.97;21.60;;;-4.30;99.90;;;;;;5057097;28;20216;-61
2022/12/18 07:46:13;;;;;;;72.50;22.40;;;-4.30;99.90;;;;;;5068656;28;20185;-60
2022/12/18 07:48:40;;;;;;;67.90;20.80;;;-4.20;99.90;;;;;;5071685;28;20438;-60
2022/12/18 07:51:06;;;;;;;57.33;19.97;;;-4.10;99.90;;;;;;5063106;28;20455;-59
2022/12/18 07:53:33;;;;;;;57.43;21.77;;;-4.10;99.90;;;;;;5075596;28;20487;-61
2022/12/18 07:56:05;;;;;;;54.47;20.20;;;-4.10;99.90;;;;;;5065663;28;20462;-60
2022/12/18 07:58:31;;;;;;;52.80;19.07;;;-4.10;99.90;;;;;;5064117;28;20446;-60
2022/12/18 08:01:04;;;;;;;63.77;20.70;;;-4.10;99.90;;;;;;5067684;28;20440;-62
2022/12/18 08:03:29;;;;;;;68.80;23.40;;;-4.00;99.90;;;;;;5061939;28;20475;-60
2022/12/18 08:05:59;;;;;;;64.20;22.80;;;-4.00;99.90;;;;;;5056570;28;20519;-60
2022/12/18 08:08:25;;;;;;;61.43;22.00;;;-4.00;99.90;;;;;;5066753;28;20193;-60
2022/12/18 08:10:51;;;;;;;69.17;26.60;;;-4.00;99.90;;;;;;5065324;28;20460;-61
2022/12/18 08:13:16;;;;;;;67.50;23.40;;;-4.00;99.90;;;;;;5069943;28;20191;-59
2022/12/18 08:15:42;;;;;;;61.60;23.97;;;-4.00;99.90;;;;;;5060804;28;20169;-60
2022/12/18 08:18:07;;;;;;;87.37;26.67;;;-4.10;99.90;;;;;;5061027;28;20210;-60
2022/12/18 08:20:33;;;;;;;71.27;24.63;;;-4.10;99.90;;;;;;5066701;28;20170;-62
2022/12/18 08:22:58;;;;;;;66.93;24.70;;;-4.00;99.90;;;;;;5063877;28;20222;-61
2022/12/18 08:25:24;;;;;;;62.90;21.97;;;-4.00;99.90;;;;;;5057638;28;20169;-62
2022/12/18 08:27:49;;;;;;;63.03;20.57;;;-4.00;99.90;;;;;;5065860;28;20228;-56
2022/12/18 08:30:15;;;;;;;66.33;21.90;;;-4.00;99.90;;;;;;5063898;28;20203;-56
2022/12/18 08:32:41;;;;;;;72.90;22.70;;;-4.00;99.90;;;;;;5060375;28;20184;-55
2022/12/18 08:35:08;;;;;;;65.33;23.13;;;-4.00;99.90;;;;;;5066547;28;20183;-55
2022/12/18 08:37:34;;;;;;;57.90;20.97;;;-3.90;99.90;;;;;;5046331;28;20219;-62
2022/12/18 08:40:00;;;;;;;59.20;20.50;;;-3.90;99.90;;;;;;5064661;28;20454;-57
2022/12/18 08:45:10;;;;;;;79.47;23.00;;;-3.90;99.90;;;;;;5064298;28;20229;-55
2022/12/18 08:47:35;;;;;;;65.93;21.90;;;-3.80;99.90;;;;;;5048355;28;20520;-57
2022/12/18 08:50:01;;;;;;;66.13;23.70;;;-3.80;99.90;;;;;;5038764;28;20459;-59
2022/12/18 08:52:28;;;;;;;65.93;22.50;;;-3.80;99.90;;;;;;5048281;28;20289;-55
2022/12/18 08:54:53;;;;;;;67.30;23.30;;;-3.70;99.90;;;;;;5059024;28;20187;-57
2022/12/18 08:57:19;;;;;;;57.63;22.43;;;-3.70;99.90;;;;;;5062349;28;20470;-55
2022/12/18 08:59:44;;;;;;;60.63;19.40;;;-3.60;99.90;;;;;;5049336;28;20257;-52
2022/12/18 09:02:11;;;;;;;74.43;24.03;;;-3.60;99.90;;;;;;5047698;28;20183;-53
2022/12/18 09:04:37;;;;;;;63.90;22.77;;;-3.60;99.90;;;;;;5046036;28;20250;-53
2022/12/18 09:07:02;;;;;;;67.07;22.00;;;-3.60;99.90;;;;;;5053089;28;20683;-57
2022/12/18 09:09:28;;;;;;;63.13;21.17;;;-3.50;99.90;;;;;;5065852;28;20180;-57
2022/12/18 09:11:54;;;;;;;60.53;20.43;;;-3.50;99.90;;;;;;5057404;28;20175;-54
2022/12/18 09:14:19;;;;;;;55.37;20.07;;;-3.50;99.90;;;;;;5056435;28;20245;-52
2022/12/18 09:16:45;;;;;;;66.00;20.77;;;-3.50;99.90;;;;;;5044716;28;20202;-58
2022/12/18 09:19:11;;;;;;;67.47;22.20;;;-3.40;99.90;;;;;;5061072;28;20177;-58
2022/12/18 09:21:37;;;;;;;59.50;21.27;;;-3.40;99.90;;;;;;5063344;28;20189;-57
2022/12/18 09:24:04;;;;;;;67.00;21.60;;;-3.40;99.90;;;;;;5068079;28;20207;-60
2022/12/18 09:26:30;;;;;;;75.07;24.63;;;-3.30;99.90;;;;;;5047233;28;20426;-54
2022/12/18 09:28:55;;;;;;;100.33;28.70;;;-3.30;99.90;;;;;;5039185;28;20439;-53
2022/12/18 09:31:23;;;;;;;79.43;24.10;;;-3.30;99.90;;;;;;5048842;28;22478;-53
2022/12/18 09:33:49;;;;;;;68.63;23.27;;;-3.30;99.90;;;;;;5041077;28;20185;-55
2022/12/18 09:36:17;;;;;;;61.57;21.60;;;-3.30;99.90;;;;;;5039618;28;20551;-53
2022/12/18 09:38:43;;;;;;;66.47;23.17;;;-3.30;99.90;;;;;;5035037;28;20191;-55
2022/12/18 09:41:45;;;;;;;54.40;21.17;;;-3.20;99.90;;;;;;5040681;28;20448;-56
2022/12/18 09:44:14;;;;;;;60.37;20.33;;;-3.20;99.90;;;;;;5039134;28;20462;-54
2022/12/18 09:46:45;;;;;;;65.07;20.87;;;-3.20;99.90;;;;;;5036479;28;20450;-51
2022/12/18 09:49:18;;;;;;;60.40;21.53;;;-3.10;99.90;;;;;;5038681;28;21161;-54
2022/12/18 09:51:56;;;;;;;62.73;22.50;;;-3.10;99.90;;;;;;5039495;28;20435;-52
2022/12/18 09:54:34;;;;;;;61.77;23.10;;;-3.10;99.90;;;;;;5040854;28;20430;-57
2022/12/18 09:56:59;;;;;;;67.43;23.90;;;-3.10;99.90;;;;;;5033934;28;20469;-55
2022/12/18 09:59:35;;;;;;;72.27;24.27;;;-3.10;99.90;;;;;;5041888;28;20434;-58
2022/12/18 10:02:17;;;;;;;75.50;25.60;;;-3.00;99.90;;;;;;5043553;28;20652;-57
2022/12/18 10:04:44;;;;;;;69.83;24.70;;;-3.00;99.90;;;;;;5037605;28;20503;-58
2022/12/18 10:07:27;;;;;;;64.50;22.00;;;-3.00;99.90;;;;;;5042482;28;21019;-57
2022/12/18 10:10:05;;;;;;;79.53;25.77;;;-3.00;99.90;;;;;;5045078;28;20448;-56
2022/12/18 10:12:46;;;;;;;73.17;22.40;;;-2.90;99.90;;;;;;5055118;28;20431;-55
2022/12/18 10:15:22;;;;;;;60.07;23.13;;;-2.90;99.90;;;;;;5060798;22;20510;-60
2022/12/18 10:18:14;;;;;;;106.97;36.13;;;-2.90;99.90;;;;;;5024929;28;20426;-59
2022/12/18 10:20:59;;;;;;;79.87;28.03;;;-2.90;99.90;;;;;;5027463;28;20490;-59
2022/12/18 10:23:33;;;;;;;86.00;27.90;;;-2.90;99.90;;;;;;5041363;28;20477;-58
2022/12/18 10:26:07;;;;;;;77.80;26.90;;;-2.90;99.90;;;;;;5025227;28;20451;-60
2022/12/18 10:28:36;;;;;;;69.40;23.30;;;-2.80;99.90;;;;;;5030588;28;20893;-60
2022/12/18 10:31:04;;;;;;;63.53;22.90;;;-2.80;99.90;;;;;;5018845;28;20835;-60
2022/12/18 10:33:32;;;;;;;66.80;24.10;;;-2.80;99.90;;;;;;5032606;28;20431;-59
2022/12/18 10:35:58;;;;;;;65.13;23.90;;;-2.70;99.90;;;;;;5034044;28;20463;-59
2022/12/18 10:38:27;;;;;;;65.90;23.87;;;-2.70;99.90;;;;;;5027329;28;20469;-53
2022/12/18 10:40:54;;;;;;;65.73;23.93;;;-2.60;99.90;;;;;;5035169;28;20930;-54
2022/12/18 10:43:26;;;;;;;75.93;24.73;;;-2.50;99.90;;;;;;5014440;28;20472;-56
2022/12/18 10:46:07;;;;;;;66.83;23.57;;;-2.50;99.90;;;;;;5031716;28;20452;-54
2022/12/18 10:48:46;;;;;;;75.93;24.60;;;-2.50;99.90;;;;;;5031845;28;20430;-55
2022/12/18 10:51:29;;;;;;;72.30;26.57;;;-2.50;99.90;;;;;;5012283;28;20503;-56
2022/12/18 10:54:13;;;;;;;75.87;25.70;;;-2.60;99.90;;;;;;5016522;28;21921;-60
2022/12/18 10:56:39;;;;;;;76.37;26.17;;;-2.60;99.90;;;;;;5049059;28;20427;-59
2022/12/18 10:59:08;;;;;;;67.47;25.40;;;-2.50;99.90;;;;;;5050022;28;20419;-60
2022/12/18 11:01:53;;;;;;;76.60;24.60;;;-2.50;99.90;;;;;;5020274;28;20497;-60
2022/12/18 11:04:28;;;;;;;64.57;24.23;;;-2.50;99.90;;;;;;5038429;28;20462;-60
2022/12/18 11:06:56;;;;;;;60.50;24.23;;;-2.50;99.90;;;;;;5042413;28;20511;-60
2022/12/18 11:09:25;;;;;;;71.70;22.47;;;-2.40;99.90;;;;;;5031235;28;20459;-60
2022/12/18 11:11:59;;;;;;;69.57;24.60;;;-2.40;99.90;;;;;;5048452;28;20437;-59
2022/12/18 11:14:28;;;;;;;65.57;24.13;;;-2.30;99.90;;;;;;5037704;28;20868;-60
2022/12/18 11:16:56;;;;;;;74.93;24.57;;;-2.30;99.90;;;;;;5048856;28;20441;-59
2022/12/18 11:19:34;;;;;;;63.00;23.20;;;-2.30;99.90;;;;;;5031701;28;20531;-59
2022/12/18 11:22:02;;;;;;;65.13;23.63;;;-2.30;99.90;;;;;;5036909;28;20467;-60
2022/12/18 11:24:34;;;;;;;69.60;23.53;;;-2.20;99.90;;;;;;5051801;28;20541;-59
2022/12/18 11:27:05;;;;;;;68.47;23.30;;;-2.20;99.90;;;;;;5049615;28;20473;-59
2022/12/18 11:29:39;;;;;;;65.50;22.37;;;-2.30;99.90;;;;;;5043187;28;20436;-60
2022/12/18 11:32:34;;;;;;;60.80;23.73;;;-2.30;99.90;;;;;;5036025;28;20489;-60
2022/12/18 11:35:17;;;;;;;61.47;24.57;;;-2.30;99.90;;;;;;5042589;28;20463;-59
2022/12/18 11:37:49;;;;;;;64.57;22.50;;;-2.30;99.90;;;;;;5043285;28;20424;-60
2022/12/18 11:40:22;;;;;;;63.40;22.17;;;-2.30;99.90;;;;;;5044419;28;20435;-60
2022/12/18 11:43:21;;;;;;;66.93;25.00;;;-2.30;99.90;;;;;;5043348;28;20453;-59
2022/12/18 11:45:54;;;;;;;74.43;25.77;;;-2.30;99.90;;;;;;5006893;28;20449;-59
2022/12/18 11:48:29;;;;;;;72.37;25.97;;;-2.30;99.90;;;;;;5045470;28;20444;-60
2022/12/18 11:50:58;;;;;;;72.23;25.70;;;-2.30;99.90;;;;;;5040178;28;21657;-61
2022/12/18 11:53:26;;;;;;;75.73;26.30;;;-2.30;99.90;;;;;;5040297;28;20949;-60
2022/12/18 11:56:29;;;;;;;70.60;25.07;;;-2.30;99.90;;;;;;5047707;28;20612;-60
2022/12/18 11:59:19;;;;;;;66.63;24.20;;;-2.20;99.90;;;;;;5052962;28;20690;-60
2022/12/18 12:02:17;;;;;;;61.50;23.17;;;-2.20;99.90;;;;;;5026281;28;20813;-59
2022/12/18 12:04:48;;;;;;;71.90;27.47;;;-2.10;99.90;;;;;;4987167;28;20521;-59
2022/12/18 12:07:27;;;;;;;67.87;27.13;;;-2.10;99.90;;;;;;5047867;28;20448;-59
2022/12/18 12:10:12;;;;;;;70.63;24.83;;;-2.10;99.90;;;;;;5020343;28;20443;-60
2022/12/18 12:12:55;;;;;;;80.23;27.37;;;-2.20;99.90;;;;;;5041115;28;20424;-60
2022/12/18 12:15:45;;;;;;;88.20;32.87;;;-2.10;99.90;;;;;;5048097;28;20473;-60
2022/12/18 12:18:21;;;;;;;106.53;36.70;;;-2.10;99.90;;;;;;5026780;28;20426;-60
2022/12/18 12:20:59;;;;;;;82.53;28.67;;;-2.10;99.90;;;;;;5041955;28;20438;-60
2022/12/18 12:23:39;;;;;;;70.20;24.70;;;-2.10;99.90;;;;;;5046200;28;20465;-60
2022/12/18 12:26:10;;;;;;;77.40;26.93;;;-2.10;99.90;;;;;;5053737;28;20451;-60
2022/12/18 12:28:50;;;;;;;80.73;27.40;;;-2.10;99.90;;;;;;5032295;28;20431;-59
2022/12/18 12:31:37;;;;;;;71.97;25.50;;;-2.00;99.90;;;;;;5051375;28;20465;-60
2022/12/18 12:34:12;;;;;;;68.83;24.03;;;-2.00;99.90;;;;;;5029970;28;20454;-59
2022/12/18 12:37:31;;;;;;;59.27;23.20;;;-2.00;99.90;;;;;;5055383;28;20513;-61
2022/12/18 12:39:57;;;;;;;77.87;27.10;;;-2.00;99.90;;;;;;5000014;28;20442;-60
2022/12/18 12:45:17;;;;;;;77.07;26.70;;;-2.10;99.90;;;;;;5032160;28;20431;-60
2022/12/18 12:47:48;;;;;;;73.93;25.43;;;-2.10;99.90;;;;;;5048286;28;20525;-59
2022/12/18 12:50:18;;;;;;;70.00;26.30;;;-2.10;99.90;;;;;;5036930;28;20926;-60